الصفحة الرئيسية
METAR-TAF:

METAR-TAF

مطار :

Kosrae, مايكرونيزيا

دائرة عرض: 05-21N, خط طول: 162-57E, ارتفاع: 3 متر

METAR: مفقودة

زمن: 19:57 (08:57 UTC)

توقعات

تاريخ ووقت الإصدار 9ساعات و 16 دقيقة قبل الساعة 23:41UTC
التوقعات صالحة من21 الساعة 00 UTC إلى 21 الساعة 24 UTC
ريح 5 عقدةمن اتجاهات متغيرة
الرؤية: 10 كم
غيوم متفرقة على ارتفاع 2000 قدم
غيوم متفرقة على ارتفاع 4000 قدم

TAF: PTSA 202341Z 2100/2124 VRB05KT P6SM SCT020 SCT040

أرصاد الطقس والتوقعات من أكثر من 4000 مطار (تقارير الطقس للمطار METAR والتنبؤ بالطقس بالمطارTAF).

المحطات المتاحة هي النقط الصفراء والحمراء على الخريطة.

حرك المؤشر فوق النقطة لمعرفة اسم المحطة.

ثم انقر لمعرفة أرصاد وتوقعات الطقس.

لتغيير الخارطة: اضغط على الأزرار الخضراء مع رمز الصليب الأسود للتكبير. على الزر الأخضر مع شرطة للتصغير، أو على الأسهم الخضراء للخرائط المجاورة.


METAR-TAF: